MSC Armonia — H8EW — position and weather

sailwx.info

Track history (hours):
 
Tides and Currents Weather Stations Pressure Air Temp Water Temp Dewpoint Dewpoint Depression Visibility Wind Speed Wind Dir Waves Ship Positions

MSC Armonia

Operator: Mediterranean Shipping Company

Last reported at 2020-Jun-08 04:47 UTC. Time now 2020-Jul-02 15:25 UTC.
Position N 25°25' W 079°14'.
Warning: this ship's position is 24 days out of date.

Length 275 m; draft 6.8 m.

Type: Ship. MMSI: 357281000.

Date/timePositionNaut miles runAvg speedWind from/ knotsBaromVisibWave heightAir tempDewpointWater temp
2020-Jun-08 04:47N 25°25' W 079°14'0 0.0
2020-Jun-06 21:56N 25°25' W 079°14'26 1.4
2020-Jun-06 02:54N 25°36' W 079°41'15 3.0
2020-Jun-05 22:00N 25°43' W 079°56'3 6.6
2020-Jun-05 21:30N 25°45' W 079°59'11 3.6
2020-Jun-05 18:28N 25°47' W 080°10'0 0.0
2020-Jun-05 17:58N 25°47' W 080°10'0 0.0
2020-Jun-05 17:28N 25°47' W 080°10'0 0.0
2020-Jun-05 15:58N 25°47' W 080°10'0 0.0
2020-Jun-05 13:58N 25°47' W 080°10'0 0.0
2020-Jun-05 12:28N 25°47' W 080°10'0 0.0
2020-Jun-05 11:28N 25°47' W 080°10'0 0.0
2020-Jun-05 06:28N 25°47' W 080°10'0 0.0
2020-Jun-05 05:58N 25°47' W 080°10'0 0.0
2020-Jun-05 04:58N 25°47' W 080°10'0 0.0
2020-Jun-05 00:28N 25°47' W 080°10'0 0.0
2020-Jun-04 23:28N 25°47' W 080°10'0 0.0
2020-Jun-04 20:58N 25°47' W 080°10'0 0.0
2020-Jun-04 19:28N 25°47' W 080°10'0 0.0
2020-Jun-04 18:28N 25°47' W 080°10'0 0.0
2020-Jun-04 16:28N 25°47' W 080°10'0 0.0
2020-Jun-04 13:28N 25°47' W 080°10'0 0.0
2020-Jun-04 12:28N 25°47' W 080°10'0 0.0
2020-Jun-04 09:28N 25°47' W 080°10'0 0.0
2020-Jun-04 07:28N 25°47' W 080°10'0 0.0
2020-Jun-04 06:28N 25°47' W 080°10'0 0.0
2020-Jun-04 05:28N 25°47' W 080°10'0 0.0
2020-Jun-04 04:28N 25°47' W 080°10'0 0.0
2020-Jun-04 01:28N 25°47' W 080°10'0 0.0
2020-Jun-03 21:55N 25°47' W 080°10'0 0.0
2020-Jun-03 20:58N 25°47' W 080°10'0 0.0
2020-Jun-03 19:30N 25°47' W 080°10'2 2.3
2020-Jun-03 18:30N 25°46' W 080°08'18 7.2
2020-Jun-03 16:00N 25°47' W 079°48'11 4.2
2020-Jun-03 13:30N 25°40' W 079°39'  
Track history (hours):
 
Tides and Currents Weather Stations Pressure Air Temp Water Temp Dewpoint Dewpoint Depression Visibility Wind Speed Wind Dir Waves Ship Positions

MSC Armonia

Operator: Mediterranean Shipping Company

Last reported at 2020-Jun-08 04:47 UTC. Time now 2020-Jul-02 15:25 UTC.
Position N 25°25' W 079°14'.
Warning: this ship's position is 24 days out of date.

Length 275 m; draft 6.8 m.

Type: Ship. MMSI: 357281000.

Date/timePositionNaut miles runAvg speedWind from/ knotsBaromVisibWave heightAir tempDewpointWater temp
2020-Jun-08 04:47N 25°25' W 079°14'0 0.0
2020-Jun-06 21:56N 25°25' W 079°14'26 1.4
2020-Jun-06 02:54N 25°36' W 079°41'15 3.0
2020-Jun-05 22:00N 25°43' W 079°56'3 6.6
2020-Jun-05 21:30N 25°45' W 079°59'11 3.6
2020-Jun-05 18:28N 25°47' W 080°10'0 0.0
2020-Jun-05 17:58N 25°47' W 080°10'0 0.0
2020-Jun-05 17:28N 25°47' W 080°10'0 0.0
2020-Jun-05 15:58N 25°47' W 080°10'0 0.0
2020-Jun-05 13:58N 25°47' W 080°10'0 0.0
2020-Jun-05 12:28N 25°47' W 080°10'0 0.0
2020-Jun-05 11:28N 25°47' W 080°10'0 0.0
2020-Jun-05 06:28N 25°47' W 080°10'0 0.0
2020-Jun-05 05:58N 25°47' W 080°10'0 0.0
2020-Jun-05 04:58N 25°47' W 080°10'0 0.0
2020-Jun-05 00:28N 25°47' W 080°10'0 0.0
2020-Jun-04 23:28N 25°47' W 080°10'0 0.0
2020-Jun-04 20:58N 25°47' W 080°10'0 0.0
2020-Jun-04 19:28N 25°47' W 080°10'0 0.0
2020-Jun-04 18:28N 25°47' W 080°10'0 0.0
2020-Jun-04 16:28N 25°47' W 080°10'0 0.0
2020-Jun-04 13:28N 25°47' W 080°10'0 0.0
2020-Jun-04 12:28N 25°47' W 080°10'0 0.0
2020-Jun-04 09:28N 25°47' W 080°10'0 0.0
2020-Jun-04 07:28N 25°47' W 080°10'0 0.0
2020-Jun-04 06:28N 25°47' W 080°10'0 0.0
2020-Jun-04 05:28N 25°47' W 080°10'0 0.0
2020-Jun-04 04:28N 25°47' W 080°10'0 0.0
2020-Jun-04 01:28N 25°47' W 080°10'0 0.0
2020-Jun-03 21:55N 25°47' W 080°10'0 0.0
2020-Jun-03 20:58N 25°47' W 080°10'0 0.0
2020-Jun-03 19:30N 25°47' W 080°10'2 2.3
2020-Jun-03 18:30N 25°46' W 080°08'18 7.2
2020-Jun-03 16:00N 25°47' W 079°48'11 4.2
2020-Jun-03 13:30N 25°40' W 079°39'  

Dump ship's entire track history